sensor_id;sensor_type;location;lat;lon;timestamp;P1;durP1;ratioP1;P2;durP2;ratioP2
28760;SDS011;15917;50.014;8.352;2022-11-14T00:01:54;16.77;;;6.65;;
28760;SDS011;15917;50.014;8.352;2022-11-14T00:04:38;14.68;;;7.43;;
28760;SDS011;15917;50.014;8.352;2022-11-14T00:07:22;13.90;;;7.10;;
28760;SDS011;15917;50.014;8.352;2022-11-14T00:10:06;16.05;;;7.57;;
28760;SDS011;15917;50.014;8.352;2022-11-14T00:12:51;17.70;;;6.53;;
28760;SDS011;15917;50.014;8.352;2022-11-14T00:15:35;16.13;;;6.82;;
28760;SDS011;15917;50.014;8.352;2022-11-14T00:18:19;12.68;;;7.10;;
28760;SDS011;15917;50.014;8.352;2022-11-14T00:21:04;14.50;;;7.28;;
28760;SDS011;15917;50.014;8.352;2022-11-14T00:23:48;15.55;;;8.10;;
28760;SDS011;15917;50.014;8.352;2022-11-14T00:26:32;16.70;;;7.88;;
28760;SDS011;15917;50.014;8.352;2022-11-14T00:29:16;17.88;;;8.13;;
28760;SDS011;15917;50.014;8.352;2022-11-14T00:32:00;18.60;;;8.95;;
28760;SDS011;15917;50.014;8.352;2022-11-14T00:34:45;15.05;;;8.15;;
28760;SDS011;15917;50.014;8.352;2022-11-14T00:37:29;16.45;;;8.95;;
28760;SDS011;15917;50.014;8.352;2022-11-14T00:40:13;16.55;;;8.73;;
28760;SDS011;15917;50.014;8.352;2022-11-14T00:42:57;18.65;;;9.40;;
28760;SDS011;15917;50.014;8.352;2022-11-14T00:45:43;16.02;;;8.57;;
28760;SDS011;15917;50.014;8.352;2022-11-14T00:48:27;18.08;;;9.13;;
28760;SDS011;15917;50.014;8.352;2022-11-14T00:51:11;19.27;;;9.60;;
28760;SDS011;15917;50.014;8.352;2022-11-14T00:53:55;19.55;;;10.52;;
28760;SDS011;15917;50.014;8.352;2022-11-14T00:56:39;21.13;;;10.30;;
28760;SDS011;15917;50.014;8.352;2022-11-14T00:59:24;18.67;;;10.15;;
28760;SDS011;15917;50.014;8.352;2022-11-14T01:02:08;20.92;;;10.85;;
28760;SDS011;15917;50.014;8.352;2022-11-14T01:04:52;20.77;;;11.35;;
28760;SDS011;15917;50.014;8.352;2022-11-14T01:07:36;34.25;;;12.73;;
28760;SDS011;15917;50.014;8.352;2022-11-14T01:10:20;71.80;;;15.60;;
28760;SDS011;15917;50.014;8.352;2022-11-14T01:13:04;174.50;;;18.67;;
28760;SDS011;15917;50.014;8.352;2022-11-14T01:15:49;111.15;;;19.38;;
28760;SDS011;15917;50.014;8.352;2022-11-14T01:18:34;79.95;;;18.33;;
28760;SDS011;15917;50.014;8.352;2022-11-14T01:21:19;72.82;;;18.75;;
28760;SDS011;15917;50.014;8.352;2022-11-14T01:24:03;81.97;;;19.05;;
28760;SDS011;15917;50.014;8.352;2022-11-14T01:26:47;91.88;;;19.05;;
28760;SDS011;15917;50.014;8.352;2022-11-14T01:29:31;75.95;;;19.00;;
28760;SDS011;15917;50.014;8.352;2022-11-14T01:32:15;48.22;;;19.88;;
28760;SDS011;15917;50.014;8.352;2022-11-14T01:34:59;195.43;;;21.98;;
28760;SDS011;15917;50.014;8.352;2022-11-14T01:37:44;179.77;;;21.17;;
28760;SDS011;15917;50.014;8.352;2022-11-14T01:40:28;81.50;;;19.63;;
28760;SDS011;15917;50.014;8.352;2022-11-14T01:46:21;160.45;;;21.50;;
28760;SDS011;15917;50.014;8.352;2022-11-14T01:49:19;68.85;;;19.15;;
28760;SDS011;15917;50.014;8.352;2022-11-14T01:54:57;167.32;;;20.77;;
28760;SDS011;15917;50.014;8.352;2022-11-14T02:00:30;56.83;;;19.13;;
28760;SDS011;15917;50.014;8.352;2022-11-14T02:03:15;65.70;;;20.85;;
28760;SDS011;15917;50.014;8.352;2022-11-14T02:06:01;111.25;;;21.80;;
28760;SDS011;15917;50.014;8.352;2022-11-14T02:08:47;117.57;;;21.55;;
28760;SDS011;15917;50.014;8.352;2022-11-14T02:11:40;82.25;;;21.13;;
28760;SDS011;15917;50.014;8.352;2022-11-14T02:14:27;85.28;;;21.67;;
28760;SDS011;15917;50.014;8.352;2022-11-14T02:17:13;102.30;;;23.58;;
28760;SDS011;15917;50.014;8.352;2022-11-14T02:20:04;54.67;;;21.23;;
28760;SDS011;15917;50.014;8.352;2022-11-14T02:22:50;124.35;;;22.58;;
28760;SDS011;15917;50.014;8.352;2022-11-14T02:25:34;194.13;;;22.85;;
28760;SDS011;15917;50.014;8.352;2022-11-14T02:28:18;93.22;;;22.60;;
28760;SDS011;15917;50.014;8.352;2022-11-14T02:31:04;165.57;;;23.20;;
28760;SDS011;15917;50.014;8.352;2022-11-14T02:33:48;63.67;;;21.58;;
28760;SDS011;15917;50.014;8.352;2022-11-14T02:36:32;60.40;;;21.80;;
28760;SDS011;15917;50.014;8.352;2022-11-14T02:39:16;63.47;;;21.48;;
28760;SDS011;15917;50.014;8.352;2022-11-14T02:42:00;77.65;;;22.85;;
28760;SDS011;15917;50.014;8.352;2022-11-14T02:44:44;76.70;;;22.88;;
28760;SDS011;15917;50.014;8.352;2022-11-14T02:47:29;62.97;;;22.00;;
28760;SDS011;15917;50.014;8.352;2022-11-14T02:50:13;62.17;;;21.83;;
28760;SDS011;15917;50.014;8.352;2022-11-14T02:52:57;75.15;;;20.83;;
28760;SDS011;15917;50.014;8.352;2022-11-14T02:55:41;70.20;;;20.73;;
28760;SDS011;15917;50.014;8.352;2022-11-14T02:58:25;51.88;;;21.08;;
28760;SDS011;15917;50.014;8.352;2022-11-14T03:01:09;90.88;;;21.23;;
28760;SDS011;15917;50.014;8.352;2022-11-14T03:03:53;58.22;;;21.55;;
28760;SDS011;15917;50.014;8.352;2022-11-14T03:06:37;75.88;;;20.70;;
28760;SDS011;15917;50.014;8.352;2022-11-14T03:09:21;52.58;;;21.77;;
28760;SDS011;15917;50.014;8.352;2022-11-14T03:12:05;62.55;;;21.95;;
28760;SDS011;15917;50.014;8.352;2022-11-14T03:14:49;54.10;;;21.42;;
28760;SDS011;15917;50.014;8.352;2022-11-14T03:17:33;64.70;;;21.88;;
28760;SDS011;15917;50.014;8.352;2022-11-14T03:20:18;52.67;;;21.60;;
28760;SDS011;15917;50.014;8.352;2022-11-14T03:23:02;49.90;;;20.45;;
28760;SDS011;15917;50.014;8.352;2022-11-14T03:25:46;55.38;;;20.98;;
28760;SDS011;15917;50.014;8.352;2022-11-14T03:28:30;61.92;;;22.58;;
28760;SDS011;15917;50.014;8.352;2022-11-14T03:31:14;59.05;;;21.77;;
28760;SDS011;15917;50.014;8.352;2022-11-14T03:33:59;51.42;;;21.83;;
28760;SDS011;15917;50.014;8.352;2022-11-14T03:36:43;59.97;;;21.30;;
28760;SDS011;15917;50.014;8.352;2022-11-14T03:39:27;57.30;;;21.30;;
28760;SDS011;15917;50.014;8.352;2022-11-14T03:42:11;64.47;;;22.17;;
28760;SDS011;15917;50.014;8.352;2022-11-14T03:44:55;64.65;;;22.73;;
28760;SDS011;15917;50.014;8.352;2022-11-14T03:47:39;48.05;;;20.83;;
28760;SDS011;15917;50.014;8.352;2022-11-14T03:50:23;52.22;;;20.08;;
28760;SDS011;15917;50.014;8.352;2022-11-14T03:53:08;46.28;;;20.63;;
28760;SDS011;15917;50.014;8.352;2022-11-14T03:55:53;53.38;;;20.38;;
28760;SDS011;15917;50.014;8.352;2022-11-14T03:58:37;49.92;;;20.75;;
28760;SDS011;15917;50.014;8.352;2022-11-14T04:01:21;50.88;;;21.20;;
28760;SDS011;15917;50.014;8.352;2022-11-14T04:04:06;47.47;;;21.13;;
28760;SDS011;15917;50.014;8.352;2022-11-14T04:06:50;46.13;;;21.40;;
28760;SDS011;15917;50.014;8.352;2022-11-14T04:09:34;56.83;;;21.52;;
28760;SDS011;15917;50.014;8.352;2022-11-14T04:12:18;52.38;;;20.63;;
28760;SDS011;15917;50.014;8.352;2022-11-14T04:15:02;47.33;;;18.73;;
28760;SDS011;15917;50.014;8.352;2022-11-14T04:17:46;46.45;;;18.45;;
28760;SDS011;15917;50.014;8.352;2022-11-14T04:20:30;41.72;;;18.27;;
28760;SDS011;15917;50.014;8.352;2022-11-14T04:23:14;51.70;;;18.50;;
28760;SDS011;15917;50.014;8.352;2022-11-14T04:25:58;45.35;;;18.40;;
28760;SDS011;15917;50.014;8.352;2022-11-14T04:28:42;47.00;;;18.55;;
28760;SDS011;15917;50.014;8.352;2022-11-14T04:31:26;43.55;;;18.02;;
28760;SDS011;15917;50.014;8.352;2022-11-14T04:34:10;37.15;;;16.70;;
28760;SDS011;15917;50.014;8.352;2022-11-14T04:36:54;35.90;;;16.98;;
28760;SDS011;15917;50.014;8.352;2022-11-14T04:39:39;35.17;;;17.17;;
28760;SDS011;15917;50.014;8.352;2022-11-14T04:42:23;31.55;;;15.68;;
28760;SDS011;15917;50.014;8.352;2022-11-14T04:45:08;29.55;;;14.55;;
28760;SDS011;15917;50.014;8.352;2022-11-14T04:47:53;33.22;;;16.00;;
28760;SDS011;15917;50.014;8.352;2022-11-14T04:50:37;32.28;;;15.30;;
28760;SDS011;15917;50.014;8.352;2022-11-14T04:53:21;25.80;;;13.68;;
28760;SDS011;15917;50.014;8.352;2022-11-14T04:56:05;28.73;;;13.40;;
28760;SDS011;15917;50.014;8.352;2022-11-14T04:58:50;28.00;;;14.38;;
28760;SDS011;15917;50.014;8.352;2022-11-14T05:01:34;31.05;;;13.73;;
28760;SDS011;15917;50.014;8.352;2022-11-14T05:04:18;25.02;;;14.07;;
28760;SDS011;15917;50.014;8.352;2022-11-14T05:07:02;21.73;;;12.40;;
28760;SDS011;15917;50.014;8.352;2022-11-14T05:09:46;23.50;;;11.77;;
28760;SDS011;15917;50.014;8.352;2022-11-14T05:12:30;24.40;;;13.02;;
28760;SDS011;15917;50.014;8.352;2022-11-14T05:15:14;26.05;;;13.30;;
28760;SDS011;15917;50.014;8.352;2022-11-14T05:17:58;22.75;;;11.75;;
28760;SDS011;15917;50.014;8.352;2022-11-14T05:20:42;21.98;;;12.13;;
28760;SDS011;15917;50.014;8.352;2022-11-14T05:23:27;25.67;;;13.65;;
28760;SDS011;15917;50.014;8.352;2022-11-14T05:26:13;22.25;;;11.70;;
28760;SDS011;15917;50.014;8.352;2022-11-14T05:28:58;26.10;;;12.52;;
28760;SDS011;15917;50.014;8.352;2022-11-14T05:31:42;22.63;;;12.93;;
28760;SDS011;15917;50.014;8.352;2022-11-14T05:34:26;27.85;;;12.75;;
28760;SDS011;15917;50.014;8.352;2022-11-14T05:37:10;25.15;;;11.65;;
28760;SDS011;15917;50.014;8.352;2022-11-14T05:39:54;23.10;;;11.80;;
28760;SDS011;15917;50.014;8.352;2022-11-14T05:42:38;23.60;;;11.40;;
28760;SDS011;15917;50.014;8.352;2022-11-14T05:45:22;23.70;;;11.93;;
28760;SDS011;15917;50.014;8.352;2022-11-14T05:48:06;24.30;;;12.32;;
28760;SDS011;15917;50.014;8.352;2022-11-14T05:50:54;22.00;;;12.23;;
28760;SDS011;15917;50.014;8.352;2022-11-14T05:53:42;23.75;;;11.57;;
28760;SDS011;15917;50.014;8.352;2022-11-14T05:56:26;21.35;;;11.80;;
28760;SDS011;15917;50.014;8.352;2022-11-14T05:59:10;23.35;;;11.30;;
28760;SDS011;15917;50.014;8.352;2022-11-14T06:01:54;19.70;;;10.95;;
28760;SDS011;15917;50.014;8.352;2022-11-14T06:04:38;23.33;;;11.93;;
28760;SDS011;15917;50.014;8.352;2022-11-14T06:07:22;22.52;;;11.70;;
28760;SDS011;15917;50.014;8.352;2022-11-14T06:10:07;24.60;;;11.77;;
28760;SDS011;15917;50.014;8.352;2022-11-14T06:12:51;22.25;;;11.13;;
28760;SDS011;15917;50.014;8.352;2022-11-14T06:15:36;20.13;;;11.02;;
28760;SDS011;15917;50.014;8.352;2022-11-14T06:18:20;21.08;;;11.82;;
28760;SDS011;15917;50.014;8.352;2022-11-14T06:21:06;25.95;;;12.95;;
28760;SDS011;15917;50.014;8.352;2022-11-14T06:23:53;21.92;;;11.55;;
28760;SDS011;15917;50.014;8.352;2022-11-14T06:26:37;29.42;;;12.18;;
28760;SDS011;15917;50.014;8.352;2022-11-14T06:29:21;25.33;;;12.52;;
28760;SDS011;15917;50.014;8.352;2022-11-14T06:32:05;33.28;;;12.73;;
28760;SDS011;15917;50.014;8.352;2022-11-14T06:34:50;32.20;;;13.68;;
28760;SDS011;15917;50.014;8.352;2022-11-14T06:37:34;26.35;;;13.20;;
28760;SDS011;15917;50.014;8.352;2022-11-14T06:40:19;30.83;;;13.25;;
28760;SDS011;15917;50.014;8.352;2022-11-14T06:43:03;31.95;;;12.85;;
28760;SDS011;15917;50.014;8.352;2022-11-14T06:45:47;27.27;;;12.98;;
28760;SDS011;15917;50.014;8.352;2022-11-14T06:48:31;26.75;;;13.02;;
28760;SDS011;15917;50.014;8.352;2022-11-14T06:51:16;26.92;;;12.10;;
28760;SDS011;15917;50.014;8.352;2022-11-14T06:54:00;24.70;;;13.00;;
28760;SDS011;15917;50.014;8.352;2022-11-14T06:56:44;28.10;;;12.60;;
28760;SDS011;15917;50.014;8.352;2022-11-14T06:59:28;28.55;;;13.00;;
28760;SDS011;15917;50.014;8.352;2022-11-14T07:02:12;26.70;;;13.13;;
28760;SDS011;15917;50.014;8.352;2022-11-14T07:04:56;30.77;;;13.90;;
28760;SDS011;15917;50.014;8.352;2022-11-14T07:07:41;26.88;;;13.35;;
28760;SDS011;15917;50.014;8.352;2022-11-14T07:10:25;26.92;;;14.40;;
28760;SDS011;15917;50.014;8.352;2022-11-14T07:13:09;27.45;;;13.98;;
28760;SDS011;15917;50.014;8.352;2022-11-14T07:15:54;25.50;;;13.05;;
28760;SDS011;15917;50.014;8.352;2022-11-14T07:18:38;32.95;;;13.38;;
28760;SDS011;15917;50.014;8.352;2022-11-14T07:21:22;28.60;;;14.20;;
28760;SDS011;15917;50.014;8.352;2022-11-14T07:24:07;31.50;;;13.85;;
28760;SDS011;15917;50.014;8.352;2022-11-14T07:26:51;31.48;;;13.50;;
28760;SDS011;15917;50.014;8.352;2022-11-14T07:29:35;25.25;;;12.63;;
28760;SDS011;15917;50.014;8.352;2022-11-14T07:32:19;28.40;;;13.38;;
28760;SDS011;15917;50.014;8.352;2022-11-14T07:35:03;34.60;;;13.75;;
28760;SDS011;15917;50.014;8.352;2022-11-14T07:37:48;31.92;;;13.68;;
28760;SDS011;15917;50.014;8.352;2022-11-14T07:40:33;28.30;;;13.60;;
28760;SDS011;15917;50.014;8.352;2022-11-14T07:43:17;32.15;;;14.20;;
28760;SDS011;15917;50.014;8.352;2022-11-14T07:46:11;29.30;;;13.38;;
28760;SDS011;15917;50.014;8.352;2022-11-14T07:49:00;23.20;;;12.57;;
28760;SDS011;15917;50.014;8.352;2022-11-14T07:51:44;26.85;;;14.02;;
28760;SDS011;15917;50.014;8.352;2022-11-14T07:54:29;26.20;;;13.25;;
28760;SDS011;15917;50.014;8.352;2022-11-14T07:57:14;33.42;;;14.32;;
28760;SDS011;15917;50.014;8.352;2022-11-14T07:59:58;29.55;;;13.52;;
28760;SDS011;15917;50.014;8.352;2022-11-14T08:02:42;34.72;;;13.13;;
28760;SDS011;15917;50.014;8.352;2022-11-14T08:05:27;32.58;;;14.68;;
28760;SDS011;15917;50.014;8.352;2022-11-14T08:08:11;41.17;;;15.38;;
28760;SDS011;15917;50.014;8.352;2022-11-14T08:10:56;29.85;;;14.93;;
28760;SDS011;15917;50.014;8.352;2022-11-14T08:13:41;35.58;;;15.88;;
28760;SDS011;15917;50.014;8.352;2022-11-14T08:16:25;39.83;;;17.33;;
28760;SDS011;15917;50.014;8.352;2022-11-14T08:19:09;38.40;;;17.88;;
28760;SDS011;15917;50.014;8.352;2022-11-14T08:21:53;35.47;;;17.25;;
28760;SDS011;15917;50.014;8.352;2022-11-14T08:24:37;38.20;;;16.52;;
28760;SDS011;15917;50.014;8.352;2022-11-14T08:27:21;41.17;;;17.00;;
28760;SDS011;15917;50.014;8.352;2022-11-14T08:30:06;37.67;;;17.42;;
28760;SDS011;15917;50.014;8.352;2022-11-14T08:32:51;43.85;;;19.42;;
28760;SDS011;15917;50.014;8.352;2022-11-14T08:35:35;46.22;;;16.95;;
28760;SDS011;15917;50.014;8.352;2022-11-14T08:38:19;36.95;;;17.83;;
28760;SDS011;15917;50.014;8.352;2022-11-14T08:41:03;39.67;;;19.08;;
28760;SDS011;15917;50.014;8.352;2022-11-14T08:43:47;47.50;;;19.45;;
28760;SDS011;15917;50.014;8.352;2022-11-14T08:46:32;40.45;;;19.55;;
28760;SDS011;15917;50.014;8.352;2022-11-14T08:49:16;43.00;;;19.55;;
28760;SDS011;15917;50.014;8.352;2022-11-14T08:52:01;45.63;;;18.80;;
28760;SDS011;15917;50.014;8.352;2022-11-14T08:54:45;40.38;;;18.90;;
28760;SDS011;15917;50.014;8.352;2022-11-14T08:57:29;40.17;;;18.05;;
28760;SDS011;15917;50.014;8.352;2022-11-14T09:00:13;40.10;;;19.83;;
28760;SDS011;15917;50.014;8.352;2022-11-14T09:02:58;40.60;;;18.50;;
28760;SDS011;15917;50.014;8.352;2022-11-14T09:05:42;46.88;;;19.42;;
28760;SDS011;15917;50.014;8.352;2022-11-14T09:08:26;40.50;;;19.48;;
28760;SDS011;15917;50.014;8.352;2022-11-14T09:11:11;42.08;;;19.13;;
28760;SDS011;15917;50.014;8.352;2022-11-14T09:13:55;45.90;;;20.60;;
28760;SDS011;15917;50.014;8.352;2022-11-14T09:16:40;45.92;;;20.40;;
28760;SDS011;15917;50.014;8.352;2022-11-14T09:19:24;47.05;;;16.88;;
28760;SDS011;15917;50.014;8.352;2022-11-14T09:22:08;48.40;;;20.40;;
28760;SDS011;15917;50.014;8.352;2022-11-14T09:24:52;44.45;;;18.77;;
28760;SDS011;15917;50.014;8.352;2022-11-14T09:27:36;41.35;;;18.38;;
28760;SDS011;15917;50.014;8.352;2022-11-14T09:30:21;40.42;;;18.08;;
28760;SDS011;15917;50.014;8.352;2022-11-14T09:33:06;47.40;;;19.15;;
28760;SDS011;15917;50.014;8.352;2022-11-14T09:35:54;46.47;;;19.42;;
28760;SDS011;15917;50.014;8.352;2022-11-14T09:38:43;40.40;;;18.33;;
28760;SDS011;15917;50.014;8.352;2022-11-14T09:41:50;41.38;;;17.27;;
28760;SDS011;15917;50.014;8.352;2022-11-14T09:47:37;45.05;;;18.92;;
28760;SDS011;15917;50.014;8.352;2022-11-14T09:50:36;35.63;;;16.95;;
28760;SDS011;15917;50.014;8.352;2022-11-14T09:53:34;36.50;;;17.88;;
28760;SDS011;15917;50.014;8.352;2022-11-14T09:56:25;41.47;;;18.13;;
28760;SDS011;15917;50.014;8.352;2022-11-14T09:59:10;40.42;;;18.20;;
28760;SDS011;15917;50.014;8.352;2022-11-14T10:01:57;43.47;;;18.15;;
28760;SDS011;15917;50.014;8.352;2022-11-14T10:08:13;32.78;;;15.52;;
28760;SDS011;15917;50.014;8.352;2022-11-14T10:11:13;37.55;;;17.33;;
28760;SDS011;15917;50.014;8.352;2022-11-14T10:17:20;31.85;;;16.40;;
28760;SDS011;15917;50.014;8.352;2022-11-14T10:23:40;38.05;;;15.70;;
28760;SDS011;15917;50.014;8.352;2022-11-14T10:32:45;38.22;;;16.48;;
28760;SDS011;15917;50.014;8.352;2022-11-14T10:39:13;32.55;;;15.30;;
28760;SDS011;15917;50.014;8.352;2022-11-14T10:42:08;38.28;;;16.83;;
28760;SDS011;15917;50.014;8.352;2022-11-14T10:45:01;32.63;;;15.90;;
28760;SDS011;15917;50.014;8.352;2022-11-14T10:47:50;33.70;;;15.13;;
28760;SDS011;15917;50.014;8.352;2022-11-14T10:50:41;32.92;;;16.75;;
28760;SDS011;15917;50.014;8.352;2022-11-14T10:53:54;31.50;;;15.75;;
28760;SDS011;15917;50.014;8.352;2022-11-14T10:56:52;30.65;;;15.07;;
28760;SDS011;15917;50.014;8.352;2022-11-14T10:59:38;30.17;;;14.57;;
28760;SDS011;15917;50.014;8.352;2022-11-14T11:02:21;36.85;;;15.23;;
28760;SDS011;15917;50.014;8.352;2022-11-14T11:05:13;29.27;;;14.23;;
28760;SDS011;15917;50.014;8.352;2022-11-14T11:07:59;41.35;;;14.93;;
28760;SDS011;15917;50.014;8.352;2022-11-14T11:11:02;29.30;;;13.63;;
28760;SDS011;15917;50.014;8.352;2022-11-14T11:14:08;32.58;;;15.50;;
28760;SDS011;15917;50.014;8.352;2022-11-14T11:17:33;27.13;;;12.95;;
28760;SDS011;15917;50.014;8.352;2022-11-14T11:20:20;26.15;;;12.40;;
28760;SDS011;15917;50.014;8.352;2022-11-14T11:25:59;36.70;;;14.93;;
28760;SDS011;15917;50.014;8.352;2022-11-14T11:31:56;28.15;;;13.43;;
28760;SDS011;15917;50.014;8.352;2022-11-14T11:34:41;27.58;;;13.50;;
28760;SDS011;15917;50.014;8.352;2022-11-14T11:37:27;26.77;;;12.48;;
28760;SDS011;15917;50.014;8.352;2022-11-14T11:40:24;28.45;;;12.95;;
28760;SDS011;15917;50.014;8.352;2022-11-14T11:43:24;27.08;;;13.48;;
28760;SDS011;15917;50.014;8.352;2022-11-14T11:46:14;24.15;;;12.63;;
28760;SDS011;15917;50.014;8.352;2022-11-14T11:49:36;25.98;;;11.98;;
28760;SDS011;15917;50.014;8.352;2022-11-14T11:52:34;24.90;;;11.80;;
28760;SDS011;15917;50.014;8.352;2022-11-14T11:55:26;28.65;;;12.07;;
28760;SDS011;15917;50.014;8.352;2022-11-14T12:01:11;26.52;;;12.00;;
28760;SDS011;15917;50.014;8.352;2022-11-14T12:03:56;18.77;;;10.52;;
28760;SDS011;15917;50.014;8.352;2022-11-14T12:06:44;21.70;;;10.88;;
28760;SDS011;15917;50.014;8.352;2022-11-14T12:09:36;22.00;;;10.73;;
28760;SDS011;15917;50.014;8.352;2022-11-14T12:15:23;19.67;;;10.68;;
28760;SDS011;15917;50.014;8.352;2022-11-14T12:18:51;22.98;;;11.80;;
28760;SDS011;15917;50.014;8.352;2022-11-14T12:30:52;20.58;;;10.68;;
28760;SDS011;15917;50.014;8.352;2022-11-14T12:33:44;23.20;;;11.52;;
28760;SDS011;15917;50.014;8.352;2022-11-14T12:36:42;22.38;;;12.10;;
28760;SDS011;15917;50.014;8.352;2022-11-14T12:39:29;27.10;;;12.07;;
28760;SDS011;15917;50.014;8.352;2022-11-14T12:42:17;23.05;;;10.88;;
28760;SDS011;15917;50.014;8.352;2022-11-14T12:45:13;32.67;;;12.18;;
28760;SDS011;15917;50.014;8.352;2022-11-14T12:48:30;26.48;;;10.77;;
28760;SDS011;15917;50.014;8.352;2022-11-14T12:57:39;20.90;;;10.65;;
28760;SDS011;15917;50.014;8.352;2022-11-14T13:12:56;20.15;;;10.75;;
28760;SDS011;15917;50.014;8.352;2022-11-14T13:16:21;35.22;;;17.25;;
28760;SDS011;15917;50.014;8.352;2022-11-14T13:19:26;26.80;;;13.90;;
28760;SDS011;15917;50.014;8.352;2022-11-14T13:22:39;22.40;;;10.88;;
28760;SDS011;15917;50.014;8.352;2022-11-14T13:25:25;22.90;;;11.20;;
28760;SDS011;15917;50.014;8.352;2022-11-14T13:34:37;26.42;;;13.73;;
28760;SDS011;15917;50.014;8.352;2022-11-14T13:52:47;23.45;;;12.45;;
28760;SDS011;15917;50.014;8.352;2022-11-14T14:02:31;33.17;;;14.95;;
28760;SDS011;15917;50.014;8.352;2022-11-14T14:17:42;28.52;;;14.85;;
28760;SDS011;15917;50.014;8.352;2022-11-14T14:20:46;29.55;;;15.88;;
28760;SDS011;15917;50.014;8.352;2022-11-14T14:26:51;25.95;;;12.60;;
28760;SDS011;15917;50.014;8.352;2022-11-14T14:35:50;24.73;;;13.50;;
28760;SDS011;15917;50.014;8.352;2022-11-14T14:38:36;29.92;;;15.32;;
28760;SDS011;15917;50.014;8.352;2022-11-14T14:41:20;26.67;;;13.55;;
28760;SDS011;15917;50.014;8.352;2022-11-14T14:44:10;29.25;;;13.90;;
28760;SDS011;15917;50.014;8.352;2022-11-14T14:47:13;30.00;;;12.07;;
28760;SDS011;15917;50.014;8.352;2022-11-14T14:50:19;25.55;;;10.55;;
28760;SDS011;15917;50.014;8.352;2022-11-14T14:53:28;28.88;;;14.73;;
28760;SDS011;15917;50.014;8.352;2022-11-14T14:56:18;23.15;;;10.93;;
28760;SDS011;15917;50.014;8.352;2022-11-14T14:59:17;26.83;;;13.57;;
28760;SDS011;15917;50.014;8.352;2022-11-14T15:02:07;31.15;;;15.25;;
28760;SDS011;15917;50.014;8.352;2022-11-14T15:05:02;28.45;;;11.98;;
28760;SDS011;15917;50.014;8.352;2022-11-14T15:07:47;18.30;;;9.77;;
28760;SDS011;15917;50.014;8.352;2022-11-14T15:10:33;16.85;;;9.35;;
28760;SDS011;15917;50.014;8.352;2022-11-14T15:13:18;18.83;;;9.80;;
28760;SDS011;15917;50.014;8.352;2022-11-14T15:16:03;17.23;;;7.93;;
28760;SDS011;15917;50.014;8.352;2022-11-14T15:18:49;16.35;;;9.10;;
28760;SDS011;15917;50.014;8.352;2022-11-14T15:21:35;17.02;;;9.88;;
28760;SDS011;15917;50.014;8.352;2022-11-14T15:24:20;38.25;;;21.75;;
28760;SDS011;15917;50.014;8.352;2022-11-14T15:27:16;36.67;;;20.98;;
28760;SDS011;15917;50.014;8.352;2022-11-14T15:30:03;63.10;;;36.22;;
28760;SDS011;15917;50.014;8.352;2022-11-14T15:32:53;24.27;;;12.07;;
28760;SDS011;15917;50.014;8.352;2022-11-14T15:35:39;46.15;;;20.55;;
28760;SDS011;15917;50.014;8.352;2022-11-14T15:38:24;21.63;;;9.45;;
28760;SDS011;15917;50.014;8.352;2022-11-14T15:41:15;16.65;;;9.63;;
28760;SDS011;15917;50.014;8.352;2022-11-14T15:44:01;24.48;;;10.88;;
28760;SDS011;15917;50.014;8.352;2022-11-14T15:46:46;22.17;;;9.70;;
28760;SDS011;15917;50.014;8.352;2022-11-14T15:49:31;19.73;;;9.02;;
28760;SDS011;15917;50.014;8.352;2022-11-14T15:52:17;18.77;;;8.35;;
28760;SDS011;15917;50.014;8.352;2022-11-14T15:55:20;16.23;;;8.30;;
28760;SDS011;15917;50.014;8.352;2022-11-14T15:58:09;21.33;;;8.45;;
28760;SDS011;15917;50.014;8.352;2022-11-14T16:00:53;20.58;;;8.63;;
28760;SDS011;15917;50.014;8.352;2022-11-14T16:03:38;16.45;;;8.05;;
28760;SDS011;15917;50.014;8.352;2022-11-14T16:06:23;15.73;;;8.77;;
28760;SDS011;15917;50.014;8.352;2022-11-14T16:09:11;22.30;;;9.02;;
28760;SDS011;15917;50.014;8.352;2022-11-14T16:11:57;18.02;;;8.70;;
28760;SDS011;15917;50.014;8.352;2022-11-14T16:14:41;23.80;;;9.65;;
28760;SDS011;15917;50.014;8.352;2022-11-14T16:17:26;23.70;;;9.25;;
28760;SDS011;15917;50.014;8.352;2022-11-14T16:20:17;25.85;;;10.85;;
28760;SDS011;15917;50.014;8.352;2022-11-14T16:23:03;16.85;;;8.95;;
28760;SDS011;15917;50.014;8.352;2022-11-14T16:25:48;30.10;;;9.55;;
28760;SDS011;15917;50.014;8.352;2022-11-14T16:28:32;18.88;;;9.68;;
28760;SDS011;15917;50.014;8.352;2022-11-14T16:31:16;30.55;;;10.18;;
28760;SDS011;15917;50.014;8.352;2022-11-14T16:34:01;18.15;;;9.82;;
28760;SDS011;15917;50.014;8.352;2022-11-14T16:36:45;22.08;;;9.90;;
28760;SDS011;15917;50.014;8.352;2022-11-14T16:39:31;24.40;;;11.25;;
28760;SDS011;15917;50.014;8.352;2022-11-14T16:42:15;23.90;;;10.70;;
28760;SDS011;15917;50.014;8.352;2022-11-14T16:44:59;21.95;;;10.10;;
28760;SDS011;15917;50.014;8.352;2022-11-14T16:47:44;23.35;;;11.45;;
28760;SDS011;15917;50.014;8.352;2022-11-14T16:50:29;35.60;;;17.27;;
28760;SDS011;15917;50.014;8.352;2022-11-14T16:53:13;19.83;;;10.88;;
28760;SDS011;15917;50.014;8.352;2022-11-14T16:55:57;21.20;;;10.32;;
28760;SDS011;15917;50.014;8.352;2022-11-14T16:58:42;19.38;;;9.95;;
28760;SDS011;15917;50.014;8.352;2022-11-14T17:01:26;18.67;;;10.13;;
28760;SDS011;15917;50.014;8.352;2022-11-14T17:04:10;18.10;;;9.63;;
28760;SDS011;15917;50.014;8.352;2022-11-14T17:06:55;19.77;;;10.05;;
28760;SDS011;15917;50.014;8.352;2022-11-14T17:09:40;17.95;;;9.88;;
28760;SDS011;15917;50.014;8.352;2022-11-14T17:12:25;23.02;;;11.65;;
28760;SDS011;15917;50.014;8.352;2022-11-14T17:15:09;23.90;;;10.18;;
28760;SDS011;15917;50.014;8.352;2022-11-14T17:17:53;32.05;;;10.52;;
28760;SDS011;15917;50.014;8.352;2022-11-14T17:20:39;23.17;;;11.20;;
28760;SDS011;15917;50.014;8.352;2022-11-14T17:23:23;22.08;;;10.27;;
28760;SDS011;15917;50.014;8.352;2022-11-14T17:26:08;27.75;;;11.45;;
28760;SDS011;15917;50.014;8.352;2022-11-14T17:28:55;25.15;;;11.18;;
28760;SDS011;15917;50.014;8.352;2022-11-14T17:31:39;22.75;;;10.75;;
28760;SDS011;15917;50.014;8.352;2022-11-14T17:34:24;26.52;;;11.40;;
28760;SDS011;15917;50.014;8.352;2022-11-14T17:37:09;21.77;;;11.70;;
28760;SDS011;15917;50.014;8.352;2022-11-14T17:39:53;30.50;;;11.10;;
28760;SDS011;15917;50.014;8.352;2022-11-14T17:42:37;21.90;;;10.27;;
28760;SDS011;15917;50.014;8.352;2022-11-14T17:45:21;17.05;;;10.15;;
28760;SDS011;15917;50.014;8.352;2022-11-14T17:48:05;19.98;;;9.48;;
28760;SDS011;15917;50.014;8.352;2022-11-14T17:50:49;22.65;;;11.05;;
28760;SDS011;15917;50.014;8.352;2022-11-14T17:53:34;21.45;;;11.55;;
28760;SDS011;15917;50.014;8.352;2022-11-14T17:56:20;20.98;;;11.27;;
28760;SDS011;15917;50.014;8.352;2022-11-14T17:59:06;25.52;;;10.93;;
28760;SDS011;15917;50.014;8.352;2022-11-14T18:01:50;18.27;;;9.05;;
28760;SDS011;15917;50.014;8.352;2022-11-14T18:04:36;23.90;;;10.20;;
28760;SDS011;15917;50.014;8.352;2022-11-14T18:07:20;22.10;;;10.55;;
28760;SDS011;15917;50.014;8.352;2022-11-14T18:10:04;19.55;;;10.00;;
28760;SDS011;15917;50.014;8.352;2022-11-14T18:12:49;19.38;;;10.05;;
28760;SDS011;15917;50.014;8.352;2022-11-14T18:15:33;18.17;;;10.10;;
28760;SDS011;15917;50.014;8.352;2022-11-14T18:18:17;27.40;;;10.40;;
28760;SDS011;15917;50.014;8.352;2022-11-14T18:24:50;21.17;;;10.55;;